Portada
METAR-TAF:

METAR-TAF

Aeroports :

Montgomery, Alabama, Estats Units d'Amèrica

latitud: 32-18-01N, longitud: 086-24-22W, altitud: 67 m

Observació

L'informe es va fer fa 1 hora i 1 minuts, a les 12:53 UTC
Vent 6 kt del Nord/Nord-Oest
Temperatura 10°C
Humitat 76%
Pressió 1016 hPa
Visibilitat: 16.1 km
Cel clar

METAR: KMGM 011253Z 33006KT 10SM CLR 10/06 A3000 RMK AO2 SLP158 T01000061

Hora: 08:54 (13:54 UTC)

Pronòstic

L'informe es va fer fa 2 hores i 34 minuts, a les 11:20 UTC
Pronòstic vàlid del 01 a les 12 UTC al 02 a les 12 UTC
Vent 5 kt del Nord-Oest
Visibilitat: 10 km
Cel clar
A partir de les 01 a les 1500 UTC
Vent 10 kt del Nord/Nord-Oest amb ràfegues de 18 kt
Visibilitat: 10 km
Cel clar
A partir de les 02 a les 0100 UTC
Vent 4 kt del Nord-Oest
Visibilitat: 10 km
Núvols disperses a una alçada de 25000 ft

TAF: KMGM 011120Z 0112/0212 32005KT P6SM SKC FM011500 34010G18KT P6SM SKC FM020100 32004KT P6SM SCT250

Observacions i pronòstics meteorològics de més de 4000 aeroports (METAR i TAF).

Les estacions disponibles són els punts grocs i vermells al mapa.

Posi el ratolí al punt desitjat per veure el nom de l'estació.

Feu clic per veure les observacions i els pronòstics meteorològics.

Per canviar el mapa: feu clic els botons verds amb una creu de color negre per apropar; al botó verd amb un guió per allunyar la imatge; o en les fletxes verdes per a mapes adjacents.


METAR-TAF: